Athens, Greece

12:16 AM EEST on September 19, 2014 (GMT +0300)
Kalamaki - AirMar | Change Station
CLOSE
Current Station
Personal Weather Station
Location: Alimos, ATTICA
Elevation: 92 ft
Nearby Weather Stations

Elev 92 ft 37.92 °N, 23.71 °E | Updated 1 minute ago

Scattered Clouds
Scattered Clouds
75.0 °F
Feels Like 78 °F
N
2.0
Wind Variable Wind from North
Gusts 3.0 mph

Today
High -- | Low -- °F
--% Chance of Precip.
Yesterday
High -- | Low -- °F
Precip. -- in
7:10 AM 7:27 PM
Waning Crescent, 24% visible
Pressure 30.12 in
Visibility 6.2 miles
Clouds Few 3000 ft
Scattered Clouds 8000 ft
Heat Index 78 °F
Dew Point 55 °F
Humidity 50%
Rainfall 0.00 in
Snow Depth Not available.
UV 0 out of 12
Pollen Not available.
Air Quality Not available.
Flu Activity Not available.
METAR LGAV 182050Z 02009KT 9999 FEW030 SCT080 21/12 Q1020 RMK SCT180 NOSIG

More Conditions Fewer Conditions

Pressure 30.12 in
Visibility 6.2 miles
Clouds Few 3000 ft
Scattered Clouds 8000 ft
Heat Index 78 °F
Dew Point 55 °F
Humidity 50%
Rainfall 0.00 in
Snow Depth Not available.
UV 0 out of 12
Pollen Not available.
Air Quality Not available.
Flu Activity Not available.
METAR LGAV 182050Z 02009KT 9999 FEW030 SCT080 21/12 Q1020 RMK SCT180 NOSIG

More Conditions Fewer Conditions

10-Day Weather Forecast

Almanac

Astronomy

Sep. 19, 2014 Rise Set
Actual Time 7:10 AM EEST 7:27 PM EEST
Civil Twilight 6:43 AM EEST 7:53 PM EEST
Nautical Twilight 6:12 AM EEST 8:24 PM EEST
Astronomical Twilight 5:41 AM EEST 8:55 PM EEST
Moon 2:42 AM EEST (9/19) 4:41 PM EEST (9/19)
Length of Visible Light 13h 09m
Length of Day
12h 17m
Tomorrow will be 2m 25s shorter.
Waning Crescent, 24% of the Moon is Illuminated
Sep 18
Waning Crescent
Sep 24
New
Oct 1
First Quarter
Oct 8
Full
Oct 15
Last Quarter

Yesterday's Extremes

Country Highs Country Lows

Community

WunderPhotos

Upload Photos

1,754,448 photos uploaded!

WunderBlogs® & News

Nearby

Snow Depth

Not available.

Earthquake Activity

City Distance Mag. Time & Date
No recent earthquake activity has been reported nearby.
Minimum magnitude displayed is 2.5.

Coastal Water Temperatures

Place Temperature
No Stations Reporting

Nearby Weather Stations